createdAt,value
2019-03-18T00:00:24.184Z,40
2019-03-18T00:00:50.172Z,40
2019-03-18T00:01:16.187Z,40
2019-03-18T00:01:42.174Z,40
2019-03-18T00:02:08.187Z,40
2019-03-18T00:02:34.180Z,40
2019-03-18T00:03:00.175Z,40
2019-03-18T00:03:26.264Z,40
2019-03-18T00:03:52.191Z,40
2019-03-18T00:04:18.192Z,40
2019-03-18T00:04:44.193Z,40
2019-03-18T00:05:10.177Z,40
2019-03-18T00:05:36.195Z,40
2019-03-18T00:06:02.177Z,40
2019-03-18T00:06:28.180Z,40
2019-03-18T00:06:54.196Z,40
2019-03-18T00:07:20.251Z,40
2019-03-18T00:07:46.199Z,40
2019-03-18T00:08:12.185Z,40
2019-03-18T00:08:38.198Z,40
2019-03-18T00:09:04.185Z,40
2019-03-18T00:09:30.187Z,40
2019-03-18T00:09:56.183Z,40
2019-03-18T00:10:22.190Z,40
2019-03-18T00:10:48.264Z,40
2019-03-18T00:11:14.214Z,40
2019-03-18T00:11:40.185Z,40
2019-03-18T00:12:06.454Z,40
2019-03-18T00:12:32.189Z,40
2019-03-18T00:12:58.192Z,41
2019-03-18T00:13:24.203Z,40
2019-03-18T00:13:50.190Z,40
2019-03-18T00:14:16.207Z,40
2019-03-18T00:14:42.207Z,40
2019-03-18T00:15:08.206Z,40
2019-03-18T00:15:34.194Z,40
2019-03-18T00:16:00.194Z,40
2019-03-18T00:16:26.195Z,40
2019-03-18T00:16:52.195Z,41
2019-03-18T00:17:18.213Z,41
2019-03-18T00:17:44.213Z,41
2019-03-18T00:18:10.197Z,41
2019-03-18T00:18:36.216Z,40
2019-03-18T00:19:02.200Z,40
2019-03-18T00:19:28.213Z,40
2019-03-18T00:19:54.196Z,40
2019-03-18T00:20:20.198Z,40
2019-03-18T00:20:46.210Z,40
2019-03-18T00:21:12.281Z,40
2019-03-18T00:21:38.261Z,40
2019-03-18T00:22:04.215Z,40
2019-03-18T00:22:30.199Z,41
2019-03-18T00:22:56.225Z,40
2019-03-18T00:23:22.200Z,40
2019-03-18T00:23:48.218Z,40
2019-03-18T00:24:14.202Z,40
2019-03-18T00:24:40.200Z,40
2019-03-18T00:25:06.224Z,41
2019-03-18T00:25:32.217Z,40
2019-03-18T00:25:58.219Z,40
2019-03-18T00:26:24.220Z,40
2019-03-18T00:26:50.280Z,40
2019-03-18T00:27:16.213Z,40
2019-03-18T00:27:42.210Z,40
2019-03-18T00:28:08.214Z,41
2019-03-18T00:28:34.256Z,40
2019-03-18T00:29:00.212Z,40
2019-03-18T00:29:26.226Z,40
2019-03-18T00:29:52.213Z,40
2019-03-18T00:30:18.256Z,40
2019-03-18T00:30:44.214Z,40
2019-03-18T00:31:10.215Z,40
2019-03-18T00:31:36.225Z,40
2019-03-18T00:32:02.296Z,40
2019-03-18T00:32:28.233Z,40
2019-03-18T00:32:54.300Z,40
2019-03-18T00:33:20.329Z,40
2019-03-18T00:33:46.237Z,40
2019-03-18T00:34:12.217Z,40
2019-03-18T00:34:38.661Z,40
2019-03-18T00:35:04.237Z,40
2019-03-18T00:35:30.295Z,41
2019-03-18T00:35:56.237Z,40
2019-03-18T00:36:22.226Z,40
2019-03-18T00:36:48.242Z,40
2019-03-18T00:37:14.224Z,40
2019-03-18T00:37:40.238Z,40
2019-03-18T00:38:06.244Z,40
2019-03-18T00:38:32.241Z,40
2019-03-18T00:38:58.240Z,40
2019-03-18T00:39:24.241Z,40
2019-03-18T00:39:50.228Z,40
2019-03-18T00:40:16.243Z,40
2019-03-18T00:40:42.231Z,40
2019-03-18T00:41:08.232Z,40
2019-03-18T00:41:34.240Z,40
2019-03-18T00:42:00.296Z,40
2019-03-18T00:42:26.247Z,40
2019-03-18T00:42:52.235Z,40
2019-03-18T00:43:18.248Z,40
2019-03-18T00:43:44.232Z,40
2019-03-18T00:44:10.232Z,40
2019-03-18T00:44:36.243Z,40
2019-03-18T00:45:02.319Z,40
2019-03-18T00:45:28.248Z,40
2019-03-18T00:45:54.255Z,40
2019-03-18T00:46:20.238Z,40
2019-03-18T00:46:46.253Z,40
2019-03-18T00:47:12.239Z,40
2019-03-18T00:47:38.256Z,40
2019-03-18T00:48:04.237Z,40
2019-03-18T00:48:30.245Z,40
2019-03-18T00:48:56.323Z,40
2019-03-18T00:49:22.255Z,40
2019-03-18T00:49:48.254Z,40
2019-03-18T00:50:14.243Z,40
2019-03-18T00:50:40.245Z,40
2019-03-18T00:51:06.244Z,40
2019-03-18T00:51:32.249Z,40
2019-03-18T00:51:58.260Z,40
2019-03-18T00:52:24.261Z,40
2019-03-18T00:52:50.245Z,40
2019-03-18T00:53:16.262Z,40
2019-03-18T00:53:42.248Z,40
2019-03-18T00:54:08.263Z,40
2019-03-18T00:54:34.249Z,40
2019-03-18T00:55:00.260Z,40
2019-03-18T00:55:26.333Z,40
2019-03-18T00:55:52.269Z,40
2019-03-18T00:56:18.265Z,40
2019-03-18T00:56:44.251Z,40
2019-03-18T00:57:10.251Z,40
2019-03-18T00:57:36.252Z,40
2019-03-18T00:58:02.259Z,40
2019-03-18T00:58:28.338Z,40
2019-03-18T00:58:54.270Z,40
2019-03-18T00:59:20.252Z,40
2019-03-18T00:59:46.487Z,40
2019-03-18T01:00:12.257Z,40
2019-03-18T01:00:38.272Z,40
2019-03-18T01:01:04.259Z,40
2019-03-18T01:01:30.255Z,40
2019-03-18T01:01:56.346Z,40
2019-03-18T01:02:22.275Z,40
2019-03-18T01:02:48.272Z,40
2019-03-18T01:03:14.465Z,40
2019-03-18T01:03:40.262Z,40
2019-03-18T01:04:06.266Z,40
2019-03-18T01:04:32.263Z,40
2019-03-18T01:04:58.378Z,40
2019-03-18T01:05:27.583Z,40
2019-03-18T01:05:50.335Z,40
2019-03-18T01:06:16.285Z,39
2019-03-18T01:06:42.270Z,39
2019-03-18T01:07:08.282Z,40
2019-03-18T01:07:34.265Z,40
2019-03-18T01:08:00.268Z,40
2019-03-18T01:08:26.274Z,40
2019-03-18T01:08:52.285Z,40
2019-03-18T01:09:18.353Z,40
2019-03-18T01:09:44.290Z,40
2019-03-18T01:10:10.275Z,40
2019-03-18T01:10:36.288Z,40
2019-03-18T01:11:02.271Z,40
2019-03-18T01:11:28.285Z,40
2019-03-18T01:11:54.352Z,40
2019-03-18T01:12:20.273Z,40
2019-03-18T01:12:46.291Z,40
2019-03-18T01:13:12.277Z,40
2019-03-18T01:13:38.288Z,40
2019-03-18T01:14:04.276Z,40
2019-03-18T01:14:30.280Z,40
2019-03-18T01:14:56.299Z,40
2019-03-18T01:15:22.293Z,40
2019-03-18T01:15:48.296Z,40
2019-03-18T01:16:14.507Z,40
2019-03-18T01:16:40.277Z,40
2019-03-18T01:17:06.279Z,40
2019-03-18T01:17:32.280Z,40
2019-03-18T01:17:58.290Z,40
2019-03-18T01:18:24.289Z,40
2019-03-18T01:18:50.354Z,40
2019-03-18T01:19:16.302Z,40
2019-03-18T01:19:42.289Z,40
2019-03-18T01:20:08.300Z,40
2019-03-18T01:20:34.292Z,40
2019-03-18T01:21:00.291Z,41
2019-03-18T01:21:26.285Z,40
2019-03-18T01:21:52.307Z,40
2019-03-18T01:22:18.369Z,40
2019-03-18T01:22:44.373Z,40
2019-03-18T01:23:10.326Z,39
2019-03-18T01:23:36.305Z,37
2019-03-18T01:24:02.293Z,35
2019-03-18T01:24:28.306Z,35
2019-03-18T01:24:54.293Z,34
2019-03-18T01:25:20.295Z,33
2019-03-18T01:25:46.398Z,34
2019-03-18T01:26:12.312Z,34
2019-03-18T01:26:38.307Z,34
2019-03-18T01:27:04.294Z,34
2019-03-18T01:27:30.300Z,34
2019-03-18T01:27:56.393Z,34
2019-03-18T01:28:22.501Z,35
2019-03-18T01:28:48.318Z,35
2019-03-18T01:29:14.407Z,35
2019-03-18T01:29:40.296Z,35
2019-03-18T01:30:06.342Z,35
2019-03-18T01:30:32.323Z,35
2019-03-18T01:30:58.316Z,36
2019-03-18T01:31:24.301Z,36
2019-03-18T01:31:50.299Z,36
2019-03-18T01:32:16.310Z,36
2019-03-18T01:32:42.396Z,36
2019-03-18T01:33:08.317Z,36
2019-03-18T01:33:34.322Z,37
2019-03-18T01:34:00.305Z,37
2019-03-18T01:34:26.319Z,37
2019-03-18T01:34:52.365Z,37
2019-03-18T01:35:18.320Z,37
2019-03-18T01:35:44.324Z,37
2019-03-18T01:36:10.396Z,37
2019-03-18T01:36:36.323Z,37
2019-03-18T01:37:02.308Z,37
2019-03-18T01:37:28.322Z,37
2019-03-18T01:37:54.309Z,37
2019-03-18T01:38:20.311Z,37
2019-03-18T01:38:46.312Z,37
2019-03-18T01:39:12.329Z,37
2019-03-18T01:39:38.393Z,37
2019-03-18T01:40:04.393Z,37
2019-03-18T01:40:30.311Z,37
2019-03-18T01:40:56.330Z,37
2019-03-18T01:41:22.314Z,37
2019-03-18T01:41:48.331Z,37
2019-03-18T01:42:14.315Z,36
2019-03-18T01:42:40.315Z,36
2019-03-18T01:43:06.320Z,36
2019-03-18T01:43:32.333Z,36
2019-03-18T01:43:58.329Z,36
2019-03-18T01:44:24.339Z,36
2019-03-18T01:44:50.461Z,36
2019-03-18T01:45:16.336Z,36
2019-03-18T01:45:42.317Z,36
2019-03-18T01:46:08.578Z,36
2019-03-18T01:46:34.332Z,36
2019-03-18T01:47:00.390Z,37
2019-03-18T01:47:26.336Z,37
2019-03-18T01:47:52.325Z,36
2019-03-18T01:48:18.339Z,36
2019-03-18T01:48:44.323Z,36
2019-03-18T01:49:10.328Z,37
2019-03-18T01:49:36.333Z,37
2019-03-18T01:50:02.340Z,37
2019-03-18T01:50:28.407Z,37
2019-03-18T01:50:54.406Z,37
2019-03-18T01:51:20.715Z,37
2019-03-18T01:51:46.344Z,37
2019-03-18T01:52:12.329Z,37
2019-03-18T01:52:38.345Z,37
2019-03-18T01:53:04.334Z,37
2019-03-18T01:53:30.333Z,37
2019-03-18T01:53:56.352Z,37
2019-03-18T01:54:22.352Z,37
2019-03-18T01:54:48.357Z,37
2019-03-18T01:55:14.355Z,37
2019-03-18T01:55:40.337Z,37
2019-03-18T01:56:06.338Z,37
2019-03-18T01:56:32.339Z,37
2019-03-18T01:56:58.345Z,37
2019-03-18T01:57:24.421Z,37
2019-03-18T01:57:50.450Z,37
2019-03-18T01:58:16.353Z,37
2019-03-18T01:58:42.338Z,37
2019-03-18T01:59:08.356Z,37
2019-03-18T01:59:34.340Z,37
2019-03-18T02:00:00.340Z,37
2019-03-18T02:00:26.342Z,37
2019-03-18T02:00:52.359Z,37
2019-03-18T02:01:18.423Z,38
2019-03-18T02:01:44.354Z,38
2019-03-18T02:02:10.349Z,38
2019-03-18T02:02:36.770Z,38
2019-03-18T02:03:02.349Z,38
2019-03-18T02:03:28.365Z,38
2019-03-18T02:03:54.358Z,38
2019-03-18T02:04:20.413Z,38
2019-03-18T02:04:46.361Z,38
2019-03-18T02:05:12.360Z,38
2019-03-18T02:05:38.364Z,38
2019-03-18T02:06:04.349Z,38
2019-03-18T02:06:30.348Z,38
2019-03-18T02:06:56.353Z,38
2019-03-18T02:07:22.354Z,38
2019-03-18T02:07:48.361Z,38
2019-03-18T02:08:14.364Z,38
2019-03-18T02:08:40.419Z,38
2019-03-18T02:09:06.369Z,38
2019-03-18T02:09:32.355Z,38
2019-03-18T02:09:58.369Z,38
2019-03-18T02:10:24.355Z,38
2019-03-18T02:10:50.357Z,38
2019-03-18T02:11:16.359Z,38
2019-03-18T02:11:42.384Z,38
2019-03-18T02:12:08.372Z,38
2019-03-18T02:12:34.375Z,38
2019-03-18T02:13:00.361Z,38
2019-03-18T02:13:26.375Z,38
2019-03-18T02:13:52.356Z,39
2019-03-18T02:14:18.361Z,38
2019-03-18T02:14:44.369Z,39
2019-03-18T02:15:10.435Z,39
2019-03-18T02:15:36.377Z,39
2019-03-18T02:16:02.381Z,39
2019-03-18T02:16:28.380Z,39
2019-03-18T02:16:54.365Z,39
2019-03-18T02:17:20.365Z,39
2019-03-18T02:17:46.370Z,39
2019-03-18T02:18:12.367Z,39
2019-03-18T02:18:38.373Z,39
2019-03-18T02:19:04.451Z,39
2019-03-18T02:19:30.369Z,39
2019-03-18T02:19:56.384Z,39
2019-03-18T02:20:22.370Z,39
2019-03-18T02:20:48.388Z,39
2019-03-18T02:21:14.374Z,38
2019-03-18T02:21:40.698Z,39
2019-03-18T02:22:06.390Z,39
2019-03-18T02:22:33.000Z,39
2019-03-18T02:22:58.405Z,39
2019-03-18T02:23:24.386Z,39
2019-03-18T02:23:50.374Z,39
2019-03-18T02:24:16.391Z,39
2019-03-18T02:24:42.380Z,39
2019-03-18T02:25:08.393Z,39
2019-03-18T02:25:34.376Z,39
2019-03-18T02:26:00.438Z,39
2019-03-18T02:26:26.458Z,39
2019-03-18T02:26:52.394Z,39
2019-03-18T02:27:18.404Z,39
2019-03-18T02:27:44.380Z,39
2019-03-18T02:28:10.380Z,40
2019-03-18T02:28:36.391Z,40
2019-03-18T02:29:02.462Z,40
2019-03-18T02:29:28.397Z,40
2019-03-18T02:29:54.397Z,40
2019-03-18T02:30:20.385Z,40
2019-03-18T02:30:46.399Z,40
2019-03-18T02:31:12.384Z,40
2019-03-18T02:31:38.385Z,40
2019-03-18T02:32:04.395Z,40
2019-03-18T02:32:30.450Z,40
2019-03-18T02:32:56.405Z,40
2019-03-18T02:33:22.403Z,40
2019-03-18T02:33:48.403Z,40
2019-03-18T02:34:14.392Z,40
2019-03-18T02:34:40.389Z,40
2019-03-18T02:35:06.391Z,40
2019-03-18T02:35:32.500Z,40
2019-03-18T02:35:58.420Z,40
2019-03-18T02:36:24.408Z,40
2019-03-18T02:36:50.394Z,40
2019-03-18T02:37:16.408Z,40
2019-03-18T02:37:42.392Z,40
2019-03-18T02:38:08.411Z,40
2019-03-18T02:38:34.396Z,40
2019-03-18T02:39:00.398Z,40
2019-03-18T02:39:26.396Z,40
2019-03-18T02:39:52.398Z,40
2019-03-18T02:40:18.413Z,40
2019-03-18T02:40:44.417Z,40
2019-03-18T02:41:10.399Z,40
2019-03-18T02:41:36.415Z,40
2019-03-18T02:42:02.402Z,40
2019-03-18T02:42:28.414Z,40
2019-03-18T02:42:54.400Z,40
2019-03-18T02:43:20.406Z,40
2019-03-18T02:43:46.413Z,40
2019-03-18T02:44:12.481Z,40
2019-03-18T02:44:38.424Z,41
2019-03-18T02:45:04.420Z,41
2019-03-18T02:45:30.409Z,41
2019-03-18T02:45:56.419Z,41
2019-03-18T02:46:22.410Z,41
2019-03-18T02:46:48.423Z,41
2019-03-18T02:47:14.407Z,41
2019-03-18T02:47:40.419Z,41
2019-03-18T02:48:06.489Z,41
2019-03-18T02:48:32.632Z,41
2019-03-18T02:48:58.424Z,41
2019-03-18T02:49:24.429Z,41
2019-03-18T02:49:50.411Z,41
2019-03-18T02:50:16.419Z,41
2019-03-18T02:50:42.415Z,41
2019-03-18T02:51:08.436Z,41
2019-03-18T02:51:34.431Z,41
2019-03-18T02:52:00.413Z,41
2019-03-18T02:52:26.429Z,42
2019-03-18T02:52:52.417Z,41
2019-03-18T02:53:18.430Z,41
2019-03-18T02:53:44.417Z,41
2019-03-18T02:54:10.421Z,41
2019-03-18T02:54:36.434Z,41
2019-03-18T02:55:02.425Z,41
2019-03-18T02:55:28.437Z,41
2019-03-18T02:55:54.423Z,41
2019-03-18T02:56:20.420Z,41
2019-03-18T02:56:46.426Z,41
2019-03-18T02:57:12.515Z,42
2019-03-18T02:57:38.438Z,41
2019-03-18T02:58:04.437Z,41
2019-03-18T02:58:30.452Z,42
2019-03-18T02:58:56.447Z,42
2019-03-18T02:59:22.554Z,42
2019-03-18T02:59:48.867Z,42
2019-03-18T03:00:14.427Z,42
2019-03-18T03:00:40.427Z,42
2019-03-18T03:01:06.510Z,42
2019-03-18T03:01:32.733Z,42
2019-03-18T03:01:58.580Z,42
2019-03-18T03:02:24.448Z,42
2019-03-18T03:02:50.434Z,42
2019-03-18T03:03:16.434Z,42
2019-03-18T03:03:42.432Z,42
2019-03-18T03:04:08.447Z,42
2019-03-18T03:04:34.451Z,42
2019-03-18T03:05:00.498Z,42
2019-03-18T03:05:26.449Z,42
2019-03-18T03:05:52.432Z,42
2019-03-18T03:06:18.447Z,42
2019-03-18T03:06:44.434Z,42
2019-03-18T03:07:10.438Z,42
2019-03-18T03:07:36.437Z,42
2019-03-18T03:08:02.465Z,42
2019-03-18T03:08:28.459Z,42
2019-03-18T03:08:54.456Z,42
2019-03-18T03:09:20.441Z,42
2019-03-18T03:09:46.456Z,42
2019-03-18T03:10:12.443Z,42
2019-03-18T03:10:38.454Z,42
2019-03-18T03:11:04.440Z,42
2019-03-18T03:11:30.443Z,42
2019-03-18T03:11:56.458Z,42
2019-03-18T03:12:22.526Z,42
2019-03-18T03:12:48.459Z,42
2019-03-18T03:13:14.462Z,42
2019-03-18T03:13:40.449Z,42
2019-03-18T03:14:06.444Z,42
2019-03-18T03:14:32.451Z,42
2019-03-18T03:14:58.488Z,42
2019-03-18T03:15:24.462Z,42
2019-03-18T03:15:50.448Z,42
2019-03-18T03:16:16.463Z,42
2019-03-18T03:16:42.449Z,42
2019-03-18T03:17:08.463Z,42
2019-03-18T03:17:34.449Z,42
2019-03-18T03:18:00.648Z,42
2019-03-18T03:18:26.467Z,42
2019-03-18T03:18:52.529Z,42
2019-03-18T03:19:18.474Z,42
2019-03-18T03:19:44.479Z,42
2019-03-18T03:20:10.452Z,42
2019-03-18T03:20:36.467Z,43
2019-03-18T03:21:02.452Z,43
2019-03-18T03:21:28.470Z,43
2019-03-18T03:21:54.464Z,43
2019-03-18T03:22:20.457Z,43
2019-03-18T03:22:46.477Z,43
2019-03-18T03:23:12.459Z,43
2019-03-18T03:23:38.475Z,43
2019-03-18T03:24:04.463Z,43
2019-03-18T03:24:30.465Z,43
2019-03-18T03:24:56.465Z,43
2019-03-18T03:25:22.480Z,43
2019-03-18T03:25:48.478Z,43
2019-03-18T03:26:14.476Z,43
2019-03-18T03:26:40.463Z,43
2019-03-18T03:27:06.480Z,43
2019-03-18T03:27:32.469Z,43
2019-03-18T03:27:58.485Z,43
2019-03-18T03:28:24.465Z,42
2019-03-18T03:28:50.471Z,43
2019-03-18T03:29:16.849Z,43
2019-03-18T03:29:42.488Z,43
2019-03-18T03:30:08.481Z,43
2019-03-18T03:30:34.482Z,43
2019-03-18T03:31:00.465Z,43
2019-03-18T03:31:26.485Z,43
2019-03-18T03:31:52.473Z,43
2019-03-18T03:32:18.481Z,43
2019-03-18T03:32:44.609Z,43
2019-03-18T03:33:10.470Z,43
2019-03-18T03:33:36.492Z,43
2019-03-18T03:34:02.478Z,43
2019-03-18T03:34:28.489Z,43
2019-03-18T03:34:54.472Z,43
2019-03-18T03:35:20.476Z,43
2019-03-18T03:35:46.491Z,43
2019-03-18T03:36:12.477Z,43
2019-03-18T03:36:38.491Z,43
2019-03-18T03:37:04.479Z,43
2019-03-18T03:37:30.479Z,44
2019-03-18T03:37:56.479Z,43
2019-03-18T03:38:22.495Z,43
2019-03-18T03:38:48.569Z,44
2019-03-18T03:39:14.499Z,44
2019-03-18T03:39:40.479Z,44
2019-03-18T03:40:06.496Z,43
2019-03-18T03:40:32.483Z,44
2019-03-18T03:40:58.497Z,44
2019-03-18T03:41:24.486Z,44
2019-03-18T03:41:50.487Z,44
2019-03-18T03:42:16.509Z,44
2019-03-18T03:42:42.502Z,44
2019-03-18T03:43:08.503Z,44
2019-03-18T03:43:34.492Z,44
2019-03-18T03:44:00.491Z,44
2019-03-18T03:44:26.485Z,44
2019-03-18T03:44:52.498Z,44
2019-03-18T03:45:18.505Z,44
2019-03-18T03:45:44.504Z,44
2019-03-18T03:46:10.489Z,44
2019-03-18T03:46:36.509Z,44
2019-03-18T03:47:02.502Z,44
2019-03-18T03:47:28.508Z,44
2019-03-18T03:47:54.498Z,44
2019-03-18T03:48:20.499Z,44
2019-03-18T03:48:46.512Z,44
2019-03-18T03:49:12.562Z,44
2019-03-18T03:49:38.508Z,44
2019-03-18T03:50:04.514Z,44
2019-03-18T03:50:30.495Z,44
2019-03-18T03:50:56.498Z,44
2019-03-18T03:51:22.502Z,44
2019-03-18T03:51:48.510Z,44
2019-03-18T03:52:14.519Z,45
2019-03-18T03:52:40.564Z,44
2019-03-18T03:53:06.520Z,44
2019-03-18T03:53:32.509Z,44
2019-03-18T03:53:58.517Z,44
2019-03-18T03:54:24.503Z,44
2019-03-18T03:54:50.502Z,44
2019-03-18T03:55:16.504Z,44
2019-03-18T03:55:42.524Z,44
2019-03-18T03:56:08.528Z,44
2019-03-18T03:56:34.523Z,44
2019-03-18T03:57:00.507Z,44
2019-03-18T03:57:26.534Z,44
2019-03-18T03:57:52.512Z,44
2019-03-18T03:58:18.505Z,44
2019-03-18T03:58:44.523Z,44
2019-03-18T03:59:10.510Z,44
2019-03-18T03:59:36.528Z,44
2019-03-18T04:00:02.509Z,44
2019-03-18T04:00:28.527Z,44
2019-03-18T04:00:54.515Z,44
2019-03-18T04:01:20.513Z,44
2019-03-18T04:01:46.520Z,44
2019-03-18T04:02:13.145Z,44
2019-03-18T04:02:38.922Z,45
2019-03-18T04:03:04.534Z,45
2019-03-18T04:03:30.516Z,45
2019-03-18T04:03:56.532Z,45
2019-03-18T04:04:22.531Z,45
2019-03-18T04:04:48.516Z,45
2019-03-18T04:05:14.626Z,45
2019-03-18T04:05:40.597Z,45
2019-03-18T04:06:06.533Z,45
2019-03-18T04:06:32.520Z,45
2019-03-18T04:06:58.538Z,45
2019-03-18T04:07:24.526Z,45
2019-03-18T04:07:50.521Z,45
2019-03-18T04:08:16.528Z,45
2019-03-18T04:08:42.607Z,45
2019-03-18T04:09:08.542Z,45
2019-03-18T04:09:34.538Z,45
2019-03-18T04:10:00.596Z,45
2019-03-18T04:10:26.529Z,45
2019-03-18T04:10:52.531Z,45
2019-03-18T04:11:18.544Z,45
2019-03-18T04:11:44.547Z,45
2019-03-18T04:12:10.524Z,45
2019-03-18T04:12:36.545Z,45
2019-03-18T04:13:02.528Z,45
2019-03-18T04:13:28.546Z,45
2019-03-18T04:13:54.529Z,45
2019-03-18T04:14:20.534Z,45
2019-03-18T04:14:46.549Z,45
2019-03-18T04:15:12.552Z,45
2019-03-18T04:15:38.549Z,45
2019-03-18T04:16:04.548Z,45
2019-03-18T04:16:30.534Z,45
2019-03-18T04:16:56.555Z,45
2019-03-18T04:17:22.552Z,45
2019-03-18T04:17:48.549Z,45
2019-03-18T04:18:14.539Z,45
2019-03-18T04:18:40.540Z,45
2019-03-18T04:19:06.553Z,45
2019-03-18T04:19:32.553Z,45
2019-03-18T04:19:58.557Z,45
2019-03-18T04:20:24.541Z,45
2019-03-18T04:20:50.539Z,45
2019-03-18T04:21:16.542Z,45
2019-03-18T04:21:42.562Z,45
2019-03-18T04:22:08.558Z,45
2019-03-18T04:22:34.559Z,45
2019-03-18T04:23:00.545Z,45
2019-03-18T04:23:26.559Z,45
2019-03-18T04:23:52.545Z,45
2019-03-18T04:24:18.559Z,45
2019-03-18T04:24:44.547Z,45
2019-03-18T04:25:10.555Z,46
2019-03-18T04:25:36.565Z,45
2019-03-18T04:26:02.628Z,46
2019-03-18T04:26:28.570Z,46
2019-03-18T04:26:54.565Z,46
2019-03-18T04:27:20.548Z,46
2019-03-18T04:27:46.594Z,46
2019-03-18T04:28:12.554Z,46
2019-03-18T04:28:38.559Z,46
2019-03-18T04:29:04.636Z,46
2019-03-18T04:29:30.553Z,46
2019-03-18T04:29:56.567Z,46
2019-03-18T04:30:22.564Z,46
2019-03-18T04:30:48.574Z,46
2019-03-18T04:31:14.558Z,46
2019-03-18T04:31:40.585Z,46
2019-03-18T04:32:06.555Z,46
2019-03-18T04:32:32.573Z,47
2019-03-18T04:32:58.643Z,46
2019-03-18T04:33:24.568Z,46
2019-03-18T04:33:50.559Z,46
2019-03-18T04:34:16.574Z,46
2019-03-18T04:34:42.562Z,47
2019-03-18T04:35:08.569Z,47
2019-03-18T04:35:34.643Z,47
2019-03-18T04:36:00.568Z,47
2019-03-18T04:36:26.579Z,47
2019-03-18T04:36:52.558Z,47
2019-03-18T04:37:18.578Z,47
2019-03-18T04:37:44.563Z,47
2019-03-18T04:38:10.570Z,47
2019-03-18T04:38:36.583Z,47
2019-03-18T04:39:02.592Z,47
2019-03-18T04:39:28.583Z,47
2019-03-18T04:39:54.584Z,47
2019-03-18T04:40:20.999Z,47
2019-03-18T04:40:46.586Z,47
2019-03-18T04:41:12.566Z,47
2019-03-18T04:41:38.590Z,47
2019-03-18T04:42:04.569Z,47
2019-03-18T04:42:30.572Z,47
2019-03-18T04:42:56.587Z,47
2019-03-18T04:43:22.590Z,47
2019-03-18T04:43:48.596Z,47
2019-03-18T04:44:14.572Z,47
2019-03-18T04:44:40.574Z,47
2019-03-18T04:45:06.574Z,47
2019-03-18T04:45:32.597Z,47
2019-03-18T04:45:58.655Z,47
2019-03-18T04:46:24.591Z,47
2019-03-18T04:46:50.579Z,47
2019-03-18T04:47:16.593Z,47
2019-03-18T04:47:42.577Z,47
2019-03-18T04:48:08.577Z,47
2019-03-18T04:48:34.600Z,47
2019-03-18T04:49:00.649Z,47
2019-03-18T04:49:26.594Z,47
2019-03-18T04:49:52.583Z,47
2019-03-18T04:50:18.595Z,47
2019-03-18T04:50:44.579Z,47
2019-03-18T04:51:10.585Z,47
2019-03-18T04:51:36.587Z,47
2019-03-18T04:52:02.585Z,47
2019-03-18T04:52:28.600Z,47
2019-03-18T04:52:54.665Z,47
2019-03-18T04:53:20.590Z,47
2019-03-18T04:53:46.603Z,47
2019-03-18T04:54:12.587Z,47
2019-03-18T04:54:38.606Z,47
2019-03-18T04:55:04.597Z,47
2019-03-18T04:55:30.588Z,47
2019-03-18T04:55:56.602Z,47
2019-03-18T04:56:22.606Z,47
2019-03-18T04:56:48.607Z,47
2019-03-18T04:57:14.590Z,47
2019-03-18T04:57:40.590Z,47
2019-03-18T04:58:06.594Z,47
2019-03-18T04:58:32.594Z,47
2019-03-18T04:58:58.689Z,47
2019-03-18T04:59:24.617Z,47
2019-03-18T04:59:50.605Z,47
2019-03-18T05:00:16.616Z,47
2019-03-18T05:00:42.595Z,47
2019-03-18T05:01:08.610Z,47
2019-03-18T05:01:34.599Z,47
2019-03-18T05:02:00.597Z,48
2019-03-18T05:02:26.598Z,47
2019-03-18T05:02:52.619Z,47
2019-03-18T05:03:18.678Z,47
2019-03-18T05:03:44.615Z,47
2019-03-18T05:04:10.603Z,47
2019-03-18T05:04:36.617Z,47
2019-03-18T05:05:02.599Z,47
2019-03-18T05:05:28.601Z,47
2019-03-18T05:05:54.617Z,47
2019-03-18T05:06:20.676Z,47
2019-03-18T05:06:46.618Z,47
2019-03-18T05:07:12.623Z,47
2019-03-18T05:07:38.622Z,47
2019-03-18T05:08:04.616Z,47
2019-03-18T05:08:30.605Z,47
2019-03-18T05:08:56.610Z,47
2019-03-18T05:09:22.602Z,47
2019-03-18T05:09:48.605Z,47
2019-03-18T05:10:14.615Z,47
2019-03-18T05:10:40.676Z,47
2019-03-18T05:11:06.627Z,47
2019-03-18T05:11:32.612Z,47
2019-03-18T05:11:58.626Z,47
2019-03-18T05:12:24.616Z,47
2019-03-18T05:12:50.613Z,47
2019-03-18T05:13:16.622Z,47
2019-03-18T05:13:42.695Z,47
2019-03-18T05:14:08.628Z,47
2019-03-18T05:14:34.633Z,47
2019-03-18T05:15:00.620Z,47
2019-03-18T05:15:26.617Z,47
2019-03-18T05:15:52.618Z,47
2019-03-18T05:16:18.624Z,47
2019-03-18T05:16:44.636Z,47
2019-03-18T05:17:10.623Z,47
2019-03-18T05:17:36.638Z,47
2019-03-18T05:18:02.621Z,47
2019-03-18T05:18:28.642Z,47
2019-03-18T05:18:54.623Z,47
2019-03-18T05:19:20.621Z,47
2019-03-18T05:19:46.654Z,47
2019-03-18T05:20:12.706Z,47
2019-03-18T05:20:38.638Z,47
2019-03-18T05:21:05.030Z,47
2019-03-18T05:21:30.625Z,47
2019-03-18T05:21:56.629Z,47
2019-03-18T05:22:22.632Z,47
2019-03-18T05:22:48.639Z,47
2019-03-18T05:23:14.640Z,47
2019-03-18T05:23:40.628Z,47
2019-03-18T05:24:06.645Z,47
2019-03-18T05:24:32.627Z,47
2019-03-18T05:24:58.647Z,47
2019-03-18T05:25:24.630Z,47
2019-03-18T05:25:50.631Z,47
2019-03-18T05:26:16.631Z,47
2019-03-18T05:26:42.647Z,47
2019-03-18T05:27:08.669Z,47
2019-03-18T05:27:34.653Z,47
2019-03-18T05:28:00.638Z,47
2019-03-18T05:28:26.633Z,47
2019-03-18T05:28:52.637Z,47
2019-03-18T05:29:18.641Z,47
2019-03-18T05:29:44.653Z,47
2019-03-18T05:30:10.644Z,47
2019-03-18T05:30:36.654Z,47
2019-03-18T05:31:02.638Z,47
2019-03-18T05:31:28.657Z,47
2019-03-18T05:31:54.647Z,48
2019-03-18T05:32:20.643Z,47
2019-03-18T05:32:46.656Z,47
2019-03-18T05:33:12.657Z,47
2019-03-18T05:33:38.718Z,47
2019-03-18T05:34:04.724Z,47
2019-03-18T05:34:30.644Z,47
2019-03-18T05:34:56.660Z,48
2019-03-18T05:35:22.645Z,47
2019-03-18T05:35:48.670Z,48
2019-03-18T05:36:14.649Z,48
2019-03-18T05:36:40.656Z,48
2019-03-18T05:37:06.665Z,47
2019-03-18T05:37:32.967Z,47
2019-03-18T05:37:58.687Z,48
2019-03-18T05:38:24.665Z,48
2019-03-18T05:38:50.650Z,48
2019-03-18T05:39:16.654Z,48
2019-03-18T05:39:42.677Z,48
2019-03-18T05:40:08.660Z,48
2019-03-18T05:40:34.737Z,48
2019-03-18T05:41:00.655Z,48
2019-03-18T05:41:26.680Z,48
2019-03-18T05:41:52.657Z,48
2019-03-18T05:42:18.669Z,48
2019-03-18T05:42:45.188Z,48
2019-03-18T05:43:10.662Z,48
2019-03-18T05:43:36.672Z,48
2019-03-18T05:44:02.658Z,47
2019-03-18T05:44:28.739Z,48
2019-03-18T05:44:54.673Z,48
2019-03-18T05:45:20.659Z,48
2019-03-18T05:45:46.677Z,48
2019-03-18T05:46:12.665Z,48
2019-03-18T05:46:38.678Z,48
2019-03-18T05:47:04.664Z,48
2019-03-18T05:47:30.671Z,48
2019-03-18T05:47:56.743Z,48
2019-03-18T05:48:22.678Z,48
2019-03-18T05:48:48.677Z,48
2019-03-18T05:49:14.665Z,48
2019-03-18T05:49:40.665Z,48
2019-03-18T05:50:06.671Z,48
2019-03-18T05:50:32.799Z,48
2019-03-18T05:50:58.679Z,48
2019-03-18T05:51:24.686Z,48
2019-03-18T05:51:50.679Z,48
2019-03-18T05:52:16.686Z,48
2019-03-18T05:52:42.668Z,48
2019-03-18T05:53:08.689Z,48
2019-03-18T05:53:34.668Z,48
2019-03-18T05:54:00.701Z,48
2019-03-18T05:54:26.689Z,49
2019-03-18T05:54:52.690Z,48
2019-03-18T05:55:18.688Z,48
2019-03-18T05:55:44.689Z,48
2019-03-18T05:56:10.672Z,48
2019-03-18T05:56:36.686Z,48
2019-03-18T05:57:02.670Z,48
2019-03-18T05:57:28.680Z,48
2019-03-18T05:57:54.756Z,48
2019-03-18T05:58:20.681Z,48
2019-03-18T05:58:46.690Z,48
2019-03-18T05:59:12.676Z,48
2019-03-18T05:59:38.699Z,48
2019-03-18T06:00:04.682Z,49
2019-03-18T06:00:30.683Z,49
2019-03-18T06:00:56.699Z,49
2019-03-18T06:01:22.700Z,49
2019-03-18T06:01:48.699Z,49
2019-03-18T06:02:14.707Z,49
2019-03-18T06:02:40.686Z,49
2019-03-18T06:03:06.685Z,49
2019-03-18T06:03:32.698Z,49
2019-03-18T06:03:58.748Z,49
2019-03-18T06:04:24.707Z,49
2019-03-18T06:04:50.762Z,49
2019-03-18T06:05:16.835Z,49
2019-03-18T06:05:42.705Z,49
2019-03-18T06:06:08.708Z,49
2019-03-18T06:06:35.204Z,49
2019-03-18T06:07:00.709Z,49
2019-03-18T06:07:26.688Z,49
2019-03-18T06:07:52.706Z,49
2019-03-18T06:08:18.768Z,49
2019-03-18T06:08:44.706Z,49
2019-03-18T06:09:10.697Z,49
2019-03-18T06:09:36.708Z,49
2019-03-18T06:10:02.693Z,49
2019-03-18T06:10:28.711Z,49
2019-03-18T06:10:54.703Z,49